Portada
METAR-TAF:

METAR-TAF

Aeropuertos :

Waynesville Regional Airport at Forney Field

Fort Leonard Wood, Misuri, Estados Unidos

latitud: 37-44N, longitud: 092-08W, altitud: 353 m

Observación

El informe se hizo hace 1 hora y 5 minutos, a las 07:56 UTC
Viento calma
Temperatura 20°C
Humedad 100%
Presión 1016 hPa
Visibilidad: 4.8 km
Cielo despejado
neblina

METAR: KTBN 060756Z AUTO 00000KT 3SM BR CLR 20/20 A2999 RMK AO2 SLP148 T01960196

Hora: 04:01 (09:01 UTC)


TAF: falta

Observaciones y pronósticos meteorológicos de más de 4000 aeropuertos (mensajes METAR y TAF).

Los puntos amarillos y rojos representan las estaciones disponibles.

Ponga el ratón en el punto deseado para ver el nombre de la estación.

Haga clic para ver las observaciones y los pronósticos meteorológicos.

Para cambiar el mapa : haga clic en los botones verdes con una cruz de color negro para hacer un zoom, en el botón verde con un guión para alejar o en las flechas verdes para mapas adyacentes.


METAR-TAF: